createdAt,value
2022-12-24T00:00:40.741Z,16.50
2022-12-24T00:10:45.467Z,16.60
2022-12-24T00:20:50.952Z,16.40
2022-12-24T00:30:54.644Z,16.10
2022-12-24T00:41:02.135Z,16.20
2022-12-24T00:51:06.442Z,16.10
2022-12-24T01:01:11.598Z,15.90
2022-12-24T01:11:15.434Z,15.60
2022-12-24T01:21:20.582Z,15.40
2022-12-24T01:31:24.871Z,15.10
2022-12-24T01:41:49.092Z,15.10
2022-12-24T01:51:56.442Z,15.30
2022-12-24T02:02:03.866Z,15.00
2022-12-24T02:12:09.100Z,14.60
2022-12-24T02:22:16.882Z,14.60
2022-12-24T02:32:25.550Z,14.80
2022-12-24T02:42:33.614Z,15.00
2022-12-24T02:52:39.932Z,15.10
2022-12-24T03:02:56.826Z,14.50
2022-12-24T03:13:05.996Z,14.30
2022-12-24T03:23:09.799Z,14.00
2022-12-24T03:33:15.847Z,13.60
2022-12-24T03:43:19.715Z,13.20
2022-12-24T03:53:24.835Z,12.70
2022-12-24T04:03:28.585Z,12.50
2022-12-24T04:13:34.091Z,12.70
2022-12-24T04:23:39.347Z,12.60
2022-12-24T04:33:45.096Z,12.40
2022-12-24T04:43:49.028Z,12.60
2022-12-24T04:53:54.797Z,12.60
2022-12-24T05:03:59.243Z,12.70
2022-12-24T05:14:04.380Z,13.00
2022-12-24T05:24:26.126Z,13.00
2022-12-24T05:34:31.221Z,12.60
2022-12-24T05:44:34.921Z,13.00
2022-12-24T05:54:40.151Z,12.80
2022-12-24T06:04:43.933Z,12.00
2022-12-24T06:14:49.298Z,12.10
2022-12-24T06:24:53.054Z,11.90
2022-12-24T06:34:58.208Z,12.10
2022-12-24T06:45:07.895Z,13.40
2022-12-24T06:55:13.785Z,12.90
2022-12-24T07:05:17.938Z,13.10
2022-12-24T07:15:23.075Z,13.10
2022-12-24T07:25:26.786Z,13.20
2022-12-24T07:35:32.556Z,13.60
2022-12-24T07:45:36.234Z,14.10
2022-12-24T07:55:41.468Z,14.60
2022-12-24T08:05:45.229Z,14.90
2022-12-24T08:15:50.516Z,15.20
2022-12-24T08:25:54.324Z,15.40
2022-12-24T08:35:59.785Z,15.10
2022-12-24T08:46:05.375Z,15.50
2022-12-24T08:56:12.040Z,15.80
2022-12-24T09:06:16.620Z,16.30
2022-12-24T09:16:22.137Z,16.70
2022-12-24T09:26:27.373Z,16.90
2022-12-24T09:36:32.651Z,17.10
2022-12-24T09:46:41.212Z,16.90
2022-12-24T09:56:50.022Z,17.20
2022-12-24T10:07:00.389Z,17.70
2022-12-24T10:17:25.571Z,18.40
2022-12-24T10:27:34.834Z,18.80
2022-12-24T10:37:41.889Z,20.00
2022-12-24T10:47:47.912Z,20.40
2022-12-24T10:58:03.394Z,20.30
2022-12-24T11:08:14.961Z,20.50
2022-12-24T11:18:20.146Z,21.20
2022-12-24T11:28:26.243Z,22.10
2022-12-24T11:38:33.188Z,21.90
2022-12-24T11:48:36.903Z,22.10
2022-12-24T11:58:47.533Z,22.60
2022-12-24T12:08:55.782Z,23.80
2022-12-24T12:19:13.054Z,24.20
2022-12-24T12:29:28.511Z,24.20
2022-12-24T12:39:34.920Z,22.20
2022-12-24T12:49:46.538Z,22.10
2022-12-24T12:59:56.588Z,21.10
2022-12-24T13:10:23.670Z,21.20
2022-12-24T13:20:32.483Z,20.30
2022-12-24T13:30:39.042Z,20.10
2022-12-24T13:40:44.260Z,19.60
2022-12-24T13:50:51.061Z,19.20
2022-12-24T14:00:59.581Z,20.00
2022-12-24T14:11:13.609Z,20.00
2022-12-24T14:21:26.555Z,21.00
2022-12-24T14:31:30.672Z,22.00
2022-12-24T14:41:44.185Z,22.20
2022-12-24T14:51:56.453Z,21.10
2022-12-24T15:02:26.013Z,19.60
2022-12-24T15:12:29.948Z,19.60
2022-12-24T15:22:37.192Z,19.40
2022-12-24T15:32:41.131Z,20.00
2022-12-24T15:42:46.408Z,20.50
2022-12-24T15:53:20.564Z,20.20
2022-12-24T16:03:23.660Z,18.90
2022-12-24T16:13:31.585Z,18.00
2022-12-24T16:23:40.478Z,17.50
2022-12-24T16:33:44.704Z,17.20
2022-12-24T16:43:52.842Z,16.50
2022-12-24T16:53:56.559Z,16.00
2022-12-24T17:04:02.246Z,15.60
2022-12-24T17:14:08.684Z,15.40
2022-12-24T17:24:14.678Z,15.40
2022-12-24T17:34:19.061Z,15.10
2022-12-24T17:44:24.617Z,15.00
2022-12-24T17:54:28.491Z,15.80
2022-12-24T18:04:33.629Z,17.70
2022-12-24T18:14:38.808Z,17.80
2022-12-24T18:24:44.081Z,17.40
2022-12-24T18:34:47.767Z,17.00
2022-12-24T18:44:53.167Z,16.50
2022-12-24T18:54:56.861Z,16.80
2022-12-24T19:05:02.007Z,18.60
2022-12-24T19:15:06.260Z,18.30
2022-12-24T19:25:11.689Z,18.00
2022-12-24T19:35:15.806Z,18.70
2022-12-24T19:45:21.748Z,18.40
2022-12-24T19:55:25.650Z,18.20
2022-12-24T20:05:31.302Z,18.00
2022-12-24T20:15:39.984Z,17.50
2022-12-24T20:25:45.252Z,17.10
2022-12-24T20:35:49.279Z,16.90
2022-12-24T20:45:56.900Z,17.60
2022-12-24T20:56:00.728Z,17.40
2022-12-24T21:06:06.515Z,16.70
2022-12-24T21:16:10.336Z,16.00
2022-12-24T21:26:15.411Z,16.20
2022-12-24T21:36:19.351Z,16.10
2022-12-24T21:46:27.358Z,16.10
2022-12-24T21:56:31.078Z,16.20
2022-12-24T22:06:54.135Z,16.30
2022-12-24T22:16:57.877Z,15.40
2022-12-24T22:27:03.024Z,13.80
2022-12-24T22:37:07.005Z,13.60
2022-12-24T22:47:12.466Z,13.60
2022-12-24T22:57:16.428Z,13.40
2022-12-24T23:07:21.966Z,12.80
2022-12-24T23:17:25.997Z,12.80
2022-12-24T23:27:31.134Z,12.80
2022-12-24T23:37:35.555Z,13.40
2022-12-24T23:47:41.139Z,13.40
2022-12-24T23:57:44.974Z,13.40
